createdAt,value
2023-05-10T00:01:19.628Z,15.40
2023-05-10T00:03:46.452Z,15.40
2023-05-10T00:06:13.290Z,15.40
2023-05-10T00:08:39.954Z,15.40
2023-05-10T00:11:06.647Z,15.40
2023-05-10T00:13:33.521Z,15.30
2023-05-10T00:16:00.432Z,15.30
2023-05-10T00:18:27.099Z,15.30
2023-05-10T00:20:53.760Z,15.20
2023-05-10T00:23:20.380Z,15.20
2023-05-10T00:25:47.095Z,15.20
2023-05-10T00:28:13.745Z,15.20
2023-05-10T00:30:40.406Z,15.20
2023-05-10T00:33:07.090Z,15.10
2023-05-10T00:35:34.038Z,15.10
2023-05-10T00:38:00.802Z,15.10
2023-05-10T00:40:27.572Z,15.10
2023-05-10T00:42:54.243Z,15.00
2023-05-10T00:45:21.031Z,15.00
2023-05-10T00:47:47.741Z,15.00
2023-05-10T00:50:15.706Z,15.00
2023-05-10T00:52:43.659Z,14.90
2023-05-10T00:55:13.018Z,15.00
2023-05-10T00:57:40.487Z,14.90
2023-05-10T01:00:07.797Z,14.90
2023-05-10T01:02:36.432Z,14.90
2023-05-10T01:05:04.630Z,14.90
2023-05-10T01:07:31.543Z,14.90
2023-05-10T01:09:58.810Z,14.80
2023-05-10T01:12:26.219Z,14.80
2023-05-10T01:14:53.218Z,14.80
2023-05-10T01:17:20.536Z,14.80
2023-05-10T01:19:47.273Z,14.80
2023-05-10T01:22:37.438Z,14.80
2023-05-10T01:25:25.498Z,14.70
2023-05-10T01:28:24.636Z,14.70
2023-05-10T01:31:04.695Z,14.70
2023-05-10T01:33:44.010Z,14.60
2023-05-10T01:36:27.207Z,14.60
2023-05-10T01:39:10.219Z,14.60
2023-05-10T01:41:52.382Z,14.60
2023-05-10T01:44:31.216Z,14.60
2023-05-10T01:47:18.171Z,14.60
2023-05-10T01:49:51.352Z,14.60
2023-05-10T01:52:20.776Z,14.50
2023-05-10T01:54:57.035Z,14.50
2023-05-10T01:57:27.571Z,14.40
2023-05-10T01:59:55.968Z,14.50
2023-05-10T02:02:25.204Z,14.40
2023-05-10T02:04:52.459Z,14.40
2023-05-10T02:07:19.866Z,14.40
2023-05-10T02:09:48.971Z,14.40
2023-05-10T02:12:17.266Z,14.30
2023-05-10T02:14:45.118Z,14.30
2023-05-10T02:17:13.199Z,14.30
2023-05-10T02:19:42.692Z,14.30
2023-05-10T02:22:10.700Z,14.20
2023-05-10T02:24:38.541Z,14.20
2023-05-10T02:27:06.195Z,14.20
2023-05-10T02:29:34.400Z,14.20
2023-05-10T02:32:02.019Z,14.20
2023-05-10T02:34:29.177Z,14.20
2023-05-10T02:36:57.324Z,14.20
2023-05-10T02:39:25.550Z,14.20
2023-05-10T02:41:53.473Z,14.10
2023-05-10T02:44:21.489Z,14.10
2023-05-10T02:46:49.021Z,14.10
2023-05-10T08:03:00.948Z,14.60
2023-05-10T08:05:27.766Z,14.60
2023-05-10T08:07:54.404Z,14.70
2023-05-10T08:10:21.104Z,14.80
2023-05-10T08:12:47.904Z,14.70
2023-05-10T08:15:14.711Z,14.80
2023-05-10T08:17:41.552Z,14.90
2023-05-10T08:20:08.889Z,14.90
2023-05-10T08:22:35.626Z,14.90
2023-05-10T08:25:02.337Z,15.00
2023-05-10T08:27:29.034Z,15.00
2023-05-10T08:29:55.707Z,15.00
2023-05-10T08:32:22.441Z,15.00
2023-05-10T08:34:49.135Z,15.10
2023-05-10T08:37:15.881Z,15.20
2023-05-10T08:39:42.650Z,15.30
2023-05-10T08:42:10.801Z,15.40
2023-05-10T08:44:38.150Z,15.40
2023-05-10T08:47:09.316Z,15.60
2023-05-10T08:49:38.029Z,15.70
2023-05-10T08:52:06.860Z,15.80
2023-05-10T08:54:34.678Z,16.00
2023-05-10T08:57:01.986Z,16.20
2023-05-10T08:59:29.438Z,16.30
2023-05-10T09:01:59.881Z,16.30
2023-05-10T09:04:28.864Z,16.60
2023-05-10T09:06:55.922Z,17.00
2023-05-10T09:09:24.015Z,17.20
2023-05-10T09:11:50.728Z,17.20
2023-05-10T09:14:18.445Z,17.30
2023-05-10T09:16:45.379Z,17.40
2023-05-10T09:19:12.405Z,17.50
2023-05-10T09:21:39.459Z,17.50
2023-05-10T09:24:09.973Z,17.70
2023-05-10T09:26:46.342Z,17.90
2023-05-10T09:29:14.196Z,17.90
2023-05-10T09:31:53.033Z,17.80
2023-05-10T09:34:22.012Z,17.50
2023-05-10T09:36:53.382Z,17.40
2023-05-10T09:39:20.491Z,17.30
2023-05-10T09:41:48.010Z,17.20
2023-05-10T09:44:19.614Z,17.30
2023-05-10T09:46:51.777Z,17.20
2023-05-10T09:49:18.292Z,17.20
2023-05-10T09:51:44.919Z,16.90
2023-05-10T09:54:16.860Z,16.90
2023-05-10T09:56:44.039Z,17.20
2023-05-10T09:59:12.634Z,17.40
2023-05-10T10:01:40.241Z,17.50
2023-05-10T10:04:10.349Z,17.30
2023-05-10T10:06:41.598Z,17.40
2023-05-10T10:09:09.082Z,17.30
2023-05-10T10:11:37.416Z,17.20
2023-05-10T10:14:04.524Z,17.20
2023-05-10T10:16:32.270Z,17.20
2023-05-10T10:18:59.587Z,17.20
2023-05-10T10:21:26.616Z,17.20
2023-05-10T10:23:54.166Z,17.30
2023-05-10T10:26:22.375Z,17.60
2023-05-10T10:29:35.810Z,17.90
2023-05-10T10:32:19.357Z,18.10
2023-05-10T10:34:46.536Z,18.30
2023-05-10T10:37:13.469Z,18.50
2023-05-10T10:39:40.273Z,18.70
2023-05-10T10:42:07.098Z,18.90
2023-05-10T10:44:37.360Z,19.00
2023-05-10T10:47:14.000Z,19.00
2023-05-10T10:49:46.806Z,19.10
2023-05-10T10:52:34.213Z,19.30
2023-05-10T10:55:25.904Z,19.30
2023-05-10T10:58:05.484Z,19.20
2023-05-10T11:00:33.937Z,19.10
2023-05-10T11:03:07.323Z,19.20
2023-05-10T11:05:38.851Z,19.50
2023-05-10T11:08:30.561Z,19.50
2023-05-10T11:11:00.303Z,19.50
2023-05-10T11:13:42.516Z,19.50
2023-05-10T11:16:12.435Z,19.70
2023-05-10T11:18:39.363Z,19.80
2023-05-10T11:21:06.298Z,20.00
2023-05-10T11:23:48.352Z,20.00
2023-05-10T11:26:15.470Z,20.00
2023-05-10T11:28:49.845Z,19.90
2023-05-10T11:31:18.275Z,19.70
2023-05-10T11:33:53.120Z,19.50
2023-05-10T11:36:24.653Z,19.20
2023-05-10T11:38:51.345Z,19.20
2023-05-10T11:41:19.748Z,19.20
2023-05-10T11:43:54.564Z,19.30
2023-05-10T11:46:24.363Z,19.50
2023-05-10T11:48:53.165Z,19.80
2023-05-10T11:51:25.006Z,20.20
2023-05-10T11:53:54.820Z,20.60
2023-05-10T11:56:21.688Z,20.70
2023-05-10T11:58:55.477Z,20.80
2023-05-10T12:01:23.036Z,20.80
2023-05-10T12:03:51.340Z,20.60
2023-05-10T12:06:19.393Z,20.30
2023-05-10T12:08:47.663Z,20.00
2023-05-10T12:11:16.386Z,19.50
2023-05-10T12:13:47.464Z,19.10
2023-05-10T12:16:22.731Z,18.80
2023-05-10T12:18:50.353Z,18.60
2023-05-10T12:21:16.988Z,18.40
2023-05-10T12:23:46.160Z,18.20
2023-05-10T12:26:12.817Z,18.10
2023-05-10T12:28:40.480Z,17.90
2023-05-10T12:31:07.764Z,17.80
2023-05-10T12:33:43.423Z,17.70
2023-05-10T12:36:17.318Z,17.60
2023-05-10T12:38:48.601Z,17.50
2023-05-10T12:41:17.696Z,17.20
2023-05-10T12:43:44.959Z,16.90
2023-05-10T12:46:13.718Z,16.60
2023-05-10T12:48:42.271Z,16.30
2023-05-10T12:51:10.582Z,16.10
2023-05-10T12:53:37.693Z,15.90
2023-05-10T12:56:04.626Z,15.70
2023-05-10T12:58:36.051Z,15.60
2023-05-10T13:01:03.452Z,15.50
2023-05-10T13:03:30.332Z,15.40
2023-05-10T13:05:57.163Z,15.30
2023-05-10T13:08:23.988Z,15.30
2023-05-10T13:10:50.710Z,15.30
2023-05-10T13:13:17.485Z,15.30
2023-05-10T13:15:44.193Z,15.30
2023-05-10T13:18:10.963Z,15.40
2023-05-10T13:20:37.956Z,15.60
2023-05-10T13:23:04.604Z,15.70
2023-05-10T13:25:31.725Z,16.00
2023-05-10T13:27:58.482Z,16.20
2023-05-10T13:30:25.097Z,16.50
2023-05-10T13:32:51.941Z,16.80
2023-05-10T13:35:18.827Z,16.90
2023-05-10T13:37:45.598Z,17.20
2023-05-10T13:40:12.642Z,17.40
2023-05-10T13:42:43.103Z,17.50
2023-05-10T13:45:10.695Z,17.40
2023-05-10T13:47:37.416Z,17.40
2023-05-10T13:50:04.597Z,17.20
2023-05-10T13:52:31.238Z,17.10
2023-05-10T13:54:58.315Z,17.10
2023-05-10T13:57:25.083Z,17.10
2023-05-10T13:59:52.411Z,17.00
2023-05-10T14:02:19.111Z,17.00
2023-05-10T14:04:45.894Z,16.90
2023-05-10T14:07:12.650Z,16.80
2023-05-10T14:09:39.513Z,16.70
2023-05-10T14:12:06.328Z,16.50
2023-05-10T14:14:33.028Z,16.50
2023-05-10T14:17:00.317Z,16.40
2023-05-10T14:19:28.100Z,16.30
2023-05-10T14:21:54.865Z,16.20
2023-05-10T14:24:21.657Z,16.20
2023-05-10T14:26:48.276Z,16.10
2023-05-10T14:29:14.970Z,16.10
2023-05-10T14:31:41.701Z,16.10
2023-05-10T14:34:08.490Z,16.20
2023-05-10T14:36:35.123Z,16.10
2023-05-10T14:39:01.894Z,16.00
2023-05-10T14:41:28.616Z,15.80
2023-05-10T14:43:55.242Z,15.50
2023-05-10T14:46:21.939Z,15.30
2023-05-10T14:48:48.602Z,15.10
2023-05-10T14:51:15.291Z,14.90
2023-05-10T14:53:42.036Z,14.70
2023-05-10T14:56:08.683Z,14.50
2023-05-10T14:58:35.294Z,14.40
2023-05-10T15:01:02.188Z,14.20
2023-05-10T15:03:29.634Z,14.10
2023-05-10T15:05:58.598Z,14.00
2023-05-10T15:08:28.824Z,13.90
2023-05-10T15:10:56.919Z,13.80
2023-05-10T15:13:23.745Z,13.80
2023-05-10T15:15:50.788Z,13.70
2023-05-10T15:18:17.800Z,13.70
2023-05-10T15:20:44.550Z,13.70
2023-05-10T15:23:11.188Z,13.70
2023-05-10T15:25:38.518Z,13.70
2023-05-10T15:28:05.920Z,13.60
2023-05-10T15:30:32.670Z,13.60
2023-05-10T15:32:59.598Z,13.70
2023-05-10T15:35:27.452Z,13.60
2023-05-10T15:37:54.295Z,13.60
2023-05-10T15:40:21.306Z,13.70
2023-05-10T15:42:48.401Z,13.70
2023-05-10T15:45:16.371Z,13.80
2023-05-10T15:47:43.431Z,13.80
2023-05-10T15:50:11.541Z,13.80
2023-05-10T15:52:38.396Z,13.90
2023-05-10T15:55:12.597Z,13.90
2023-05-10T15:57:41.055Z,13.90
2023-05-10T16:00:09.175Z,13.90
2023-05-10T16:02:36.282Z,14.00
2023-05-10T16:05:03.562Z,14.10
2023-05-10T16:07:30.386Z,14.10
2023-05-10T16:09:57.039Z,14.20
2023-05-10T16:12:23.793Z,14.20
2023-05-10T16:14:50.536Z,14.20
2023-05-10T16:17:17.406Z,14.20
2023-05-10T16:19:44.172Z,14.20
2023-05-10T16:22:10.952Z,14.30
2023-05-10T16:24:37.646Z,14.30
2023-05-10T16:27:04.337Z,14.30
2023-05-10T16:29:32.119Z,14.30
2023-05-10T16:31:58.829Z,14.30
2023-05-10T16:34:25.922Z,14.30
2023-05-10T16:36:52.744Z,14.30
2023-05-10T16:39:19.424Z,14.30
2023-05-10T16:41:46.168Z,14.20
2023-05-10T16:44:12.916Z,14.20
2023-05-10T16:46:39.746Z,14.30
2023-05-10T16:49:06.928Z,14.20
2023-05-10T16:51:33.576Z,14.30
2023-05-10T16:54:00.267Z,14.20
2023-05-10T16:56:27.047Z,14.20
2023-05-10T16:58:54.091Z,14.20
2023-05-10T17:01:21.338Z,14.20
2023-05-10T17:03:48.808Z,14.20
2023-05-10T17:06:16.239Z,14.20
2023-05-10T17:08:43.232Z,14.20
2023-05-10T17:11:09.979Z,14.20
2023-05-10T17:13:36.681Z,14.20
2023-05-10T17:16:03.825Z,14.20
2023-05-10T17:18:30.806Z,14.20
2023-05-10T17:20:57.617Z,14.20
2023-05-10T17:23:24.302Z,14.20
2023-05-10T17:25:51.129Z,14.20
2023-05-10T17:28:17.892Z,14.20
2023-05-10T17:30:44.545Z,14.20
2023-05-10T17:33:11.343Z,14.20
2023-05-10T17:35:38.054Z,14.20
2023-05-10T17:38:04.767Z,14.20
2023-05-10T17:40:32.025Z,14.20
2023-05-10T17:42:58.788Z,14.20
2023-05-10T17:45:26.384Z,14.10
2023-05-10T17:47:53.116Z,14.10
2023-05-10T17:50:19.911Z,14.10
2023-05-10T17:52:46.646Z,14.10
2023-05-10T17:55:13.387Z,14.00
2023-05-10T17:57:40.112Z,14.00
2023-05-10T18:00:09.321Z,14.00
2023-05-10T18:02:36.942Z,14.00
2023-05-10T18:05:04.734Z,14.00
2023-05-10T18:07:31.731Z,14.00
2023-05-10T18:09:58.772Z,14.00
2023-05-10T18:12:25.618Z,13.90
2023-05-10T18:14:52.367Z,13.90
2023-05-10T18:17:19.101Z,13.90
2023-05-10T18:19:45.866Z,13.90
2023-05-10T18:22:12.676Z,13.90
2023-05-10T18:24:40.283Z,13.90
2023-05-10T18:27:08.857Z,13.80
2023-05-10T18:29:36.318Z,13.90
2023-05-10T18:32:03.216Z,13.80
2023-05-10T18:34:29.922Z,13.80
2023-05-10T18:36:57.039Z,13.80
2023-05-10T18:39:25.032Z,13.80
2023-05-10T18:41:52.058Z,13.80
2023-05-10T18:44:19.176Z,13.80
2023-05-10T18:46:46.457Z,13.70
2023-05-10T18:49:13.391Z,13.70
2023-05-10T18:51:40.486Z,13.60
2023-05-10T18:54:07.395Z,13.60
2023-05-10T18:56:34.353Z,13.50
2023-05-10T18:59:01.220Z,13.50
2023-05-10T19:01:28.264Z,13.50
